Time;durP1;ratioP1;P1;durP2;ratioP2;P2;SDS_P1;SDS_P2;PMS_P1;PMS_P2;Temp;Humidity;BMP_temperature;BMP_pressure;BME280_temperature;BME280_humidity;BME280_pressure;Samples;Min_cycle;Max_cycle;Signal;HPM_P1;HPM_P2
2022/08/05 00:02:08;;;;;;;7.55;2.35;;;18.20;99.90;;;;;;5080279;28;20070;-75
2022/08/05 00:04:34;;;;;;;7.28;2.53;;;18.10;99.90;;;;;;5084085;27;20046;-77
2022/08/05 00:07:00;;;;;;;7.50;2.50;;;18.10;99.90;;;;;;5099346;27;20094;-77
2022/08/05 00:09:25;;;;;;;9.75;2.50;;;18.10;99.90;;;;;;5102279;28;20051;-74
2022/08/05 00:15:32;;;;;;;8.15;2.40;;;18.20;99.90;;;;;;5126835;27;20068;-73
2022/08/05 00:17:58;;;;;;;7.20;2.38;;;18.10;99.90;;;;;;5084195;28;20035;-78
2022/08/05 00:20:24;;;;;;;8.02;2.28;;;18.10;99.90;;;;;;5099235;28;20466;-76
2022/08/05 00:22:49;;;;;;;8.80;2.33;;;18.10;99.90;;;;;;5099444;28;20043;-73
2022/08/05 00:25:15;;;;;;;11.95;2.30;;;18.10;99.90;;;;;;5100316;28;20067;-76
2022/08/05 00:27:41;;;;;;;6.72;2.53;;;18.10;99.90;;;;;;5100814;28;20401;-74
2022/08/05 00:30:07;;;;;;;9.52;2.53;;;18.10;99.90;;;;;;5096136;28;20361;-75
2022/08/05 00:32:33;;;;;;;12.10;2.90;;;18.20;99.90;;;;;;5102297;28;20058;-74
2022/08/05 00:34:58;;;;;;;8.88;2.38;;;18.10;99.90;;;;;;5103964;28;20346;-74
2022/08/05 00:37:24;;;;;;;7.28;2.78;;;18.10;99.90;;;;;;5078547;28;20478;-74
2022/08/05 00:39:50;;;;;;;9.52;2.55;;;18.10;99.90;;;;;;5105783;28;20039;-74
2022/08/05 00:42:29;;;;;;;12.60;2.85;;;18.00;99.90;;;;;;5098843;28;20035;-74
2022/08/05 00:44:54;;;;;;;9.43;2.90;;;18.00;99.90;;;;;;5103057;28;20398;-74
2022/08/05 00:47:20;;;;;;;12.88;3.17;;;18.00;99.90;;;;;;5099258;28;20043;-73
2022/08/05 00:49:46;;;;;;;7.82;2.90;;;18.00;99.90;;;;;;5102395;28;20039;-73
2022/08/05 00:52:11;;;;;;;10.88;3.15;;;18.00;99.90;;;;;;5077283;28;20166;-73
2022/08/05 00:54:37;;;;;;;11.95;3.90;;;17.90;99.90;;;;;;5081489;28;20075;-73
2022/08/05 00:57:03;;;;;;;10.90;3.50;;;17.90;99.90;;;;;;5099092;28;20067;-74
2022/08/05 00:59:29;;;;;;;8.68;3.47;;;17.80;99.90;;;;;;5092439;28;20039;-75
2022/08/05 01:01:55;;;;;;;13.52;3.45;;;17.80;99.90;;;;;;5079335;28;20091;-73
2022/08/05 01:04:20;;;;;;;12.43;3.25;;;17.90;99.90;;;;;;5101763;28;20158;-75
2022/08/05 01:06:47;;;;;;;12.00;3.80;;;17.90;99.90;;;;;;5103284;27;20118;-75
2022/08/05 01:09:13;;;;;;;8.27;3.38;;;17.80;99.90;;;;;;5089138;27;20035;-73
2022/08/05 01:11:40;;;;;;;11.90;3.35;;;17.80;99.90;;;;;;5100398;27;20042;-75
2022/08/05 01:14:13;;;;;;;9.48;3.08;;;17.90;99.90;;;;;;5103990;27;20034;-72
2022/08/05 01:16:47;;;;;;;8.55;2.92;;;17.90;99.90;;;;;;5104512;27;20039;-75
2022/08/05 01:19:27;;;;;;;8.15;2.78;;;18.00;99.90;;;;;;5105708;27;20171;-75
2022/08/05 01:22:01;;;;;;;8.63;2.85;;;18.10;99.90;;;;;;5108250;27;20270;-73
2022/08/05 01:24:48;;;;;;;13.10;2.90;;;18.10;99.90;;;;;;5107013;27;20509;-74
2022/08/05 01:27:42;;;;;;;11.10;2.95;;;18.10;99.90;;;;;;5104552;27;20058;-75
2022/08/05 01:30:08;;;;;;;7.57;2.53;;;18.10;99.90;;;;;;5092542;27;20395;-74
2022/08/05 01:32:38;;;;;;;9.63;2.75;;;18.20;99.90;;;;;;5110737;27;20077;-73
2022/08/05 01:35:13;;;;;;;9.80;2.83;;;18.20;99.90;;;;;;5106724;27;20122;-73
2022/08/05 01:37:50;;;;;;;8.20;2.72;;;18.20;99.90;;;;;;5104587;27;20350;-73
2022/08/05 01:40:18;;;;;;;8.77;3.20;;;18.20;99.90;;;;;;5105409;27;20039;-74
2022/08/05 01:42:46;;;;;;;11.20;3.40;;;18.20;99.90;;;;;;5101480;27;20047;-73
2022/08/05 01:45:14;;;;;;;8.02;3.00;;;18.20;99.90;;;;;;5104448;27;20067;-74
2022/08/05 01:47:40;;;;;;;11.05;2.95;;;18.20;99.90;;;;;;5086140;27;20117;-74
2022/08/05 01:50:10;;;;;;;9.13;2.95;;;18.10;99.90;;;;;;5084451;27;20132;-74
2022/08/05 01:52:40;;;;;;;13.07;3.22;;;18.10;99.90;;;;;;5081011;27;20477;-74
2022/08/05 01:55:08;;;;;;;9.82;3.10;;;18.20;99.90;;;;;;5102114;27;20127;-74
2022/08/05 01:57:41;;;;;;;8.07;3.40;;;18.10;99.90;;;;;;5105765;27;20148;-73
2022/08/05 02:00:11;;;;;;;9.60;3.00;;;18.00;99.90;;;;;;5100000;27;20146;-74
2022/08/05 02:02:42;;;;;;;9.27;2.65;;;18.00;99.90;;;;;;5098017;27;20393;-74
2022/08/05 02:05:12;;;;;;;12.43;3.03;;;18.10;99.90;;;;;;5101991;27;20043;-74
2022/08/05 02:07:38;;;;;;;6.40;2.78;;;18.10;99.90;;;;;;5101741;27;20051;-73
2022/08/05 02:10:05;;;;;;;7.30;2.28;;;18.10;99.90;;;;;;5093031;27;20043;-74
2022/08/05 02:12:40;;;;;;;8.43;2.78;;;18.10;99.90;;;;;;5102783;27;20039;-74
2022/08/05 02:15:12;;;;;;;11.23;3.08;;;18.10;99.90;;;;;;5084228;27;20044;-73
2022/08/05 02:17:44;;;;;;;11.50;3.10;;;18.10;99.90;;;;;;5098539;27;20531;-74
2022/08/05 02:20:17;;;;;;;7.40;2.97;;;18.10;99.90;;;;;;5102421;27;20084;-74
2022/08/05 02:22:45;;;;;;;11.25;2.80;;;18.10;99.90;;;;;;5081516;27;20104;-74
2022/08/05 02:25:18;;;;;;;8.65;2.80;;;18.10;99.90;;;;;;5101831;27;20117;-74
2022/08/05 02:27:47;;;;;;;7.53;3.08;;;18.00;99.90;;;;;;5081947;27;20062;-74
2022/08/05 02:30:15;;;;;;;9.10;2.90;;;18.00;99.90;;;;;;5101460;27;20043;-75
2022/08/05 02:32:45;;;;;;;8.40;2.42;;;18.00;99.90;;;;;;5082825;27;20043;-74
2022/08/05 02:35:14;;;;;;;11.27;2.75;;;18.00;99.90;;;;;;5104266;27;20118;-73
2022/08/05 02:37:42;;;;;;;8.18;3.00;;;17.90;99.90;;;;;;5102762;27;20031;-74
2022/08/05 02:40:09;;;;;;;8.13;2.83;;;17.90;99.90;;;;;;5085352;27;20031;-73
2022/08/05 02:42:36;;;;;;;7.85;2.53;;;17.90;99.90;;;;;;5099988;27;20166;-74
2022/08/05 02:45:04;;;;;;;8.95;2.80;;;17.90;99.90;;;;;;5104272;27;20347;-74
2022/08/05 02:47:34;;;;;;;12.63;2.90;;;18.00;99.90;;;;;;5103269;27;20034;-74
2022/08/05 02:50:00;;;;;;;7.68;3.08;;;18.00;99.90;;;;;;5087477;27;20110;-74
2022/08/05 02:52:27;;;;;;;9.35;3.00;;;18.00;99.90;;;;;;5089410;27;20486;-73
2022/08/05 02:54:54;;;;;;;7.38;3.17;;;18.00;99.90;;;;;;5105100;27;20042;-72
2022/08/05 02:57:21;;;;;;;9.75;3.15;;;18.10;99.90;;;;;;5115536;27;20140;-74
2022/08/05 02:59:49;;;;;;;10.00;3.15;;;18.10;99.90;;;;;;5102049;27;20437;-74
2022/08/05 03:02:18;;;;;;;10.55;2.90;;;18.00;99.90;;;;;;5101297;27;20047;-74
2022/08/05 03:04:44;;;;;;;10.30;3.25;;;18.10;99.90;;;;;;5099204;27;20096;-73
2022/08/05 03:07:11;;;;;;;10.38;3.15;;;18.10;99.90;;;;;;5080987;28;20043;-74
2022/08/05 03:09:38;;;;;;;10.13;3.38;;;18.10;99.90;;;;;;5096502;28;20108;-75
2022/08/05 03:12:05;;;;;;;7.15;2.78;;;18.00;99.90;;;;;;5099028;28;20078;-74
2022/08/05 03:14:30;;;;;;;9.88;3.08;;;18.00;99.90;;;;;;5098258;28;20048;-74
2022/08/05 03:16:56;;;;;;;8.63;3.00;;;18.00;99.90;;;;;;5098990;28;20071;-76
2022/08/05 03:19:21;;;;;;;7.28;3.35;;;18.00;99.90;;;;;;5077473;28;20066;-75
2022/08/05 03:21:47;;;;;;;9.02;3.67;;;18.00;99.90;;;;;;5100205;28;20039;-74
2022/08/05 03:24:13;;;;;;;8.88;3.75;;;17.90;99.90;;;;;;5100008;28;20517;-74
2022/08/05 03:26:39;;;;;;;12.25;3.53;;;17.90;99.90;;;;;;5096477;28;20086;-75
2022/08/05 03:29:05;;;;;;;9.13;4.03;;;17.80;99.90;;;;;;5095055;28;20127;-73
2022/08/05 03:31:31;;;;;;;8.30;3.40;;;17.80;99.90;;;;;;5098131;28;20051;-74
2022/08/05 03:34:00;;;;;;;6.93;3.30;;;17.80;99.90;;;;;;5097904;28;20039;-74
2022/08/05 03:36:26;;;;;;;7.43;3.30;;;17.80;99.90;;;;;;5076550;28;20031;-73
2022/08/05 03:38:52;;;;;;;5.85;3.08;;;17.60;99.90;;;;;;5080211;28;20047;-74
2022/08/05 03:41:17;;;;;;;7.20;3.50;;;17.70;99.90;;;;;;5104546;28;20054;-75
2022/08/05 03:43:43;;;;;;;17.48;3.70;;;17.70;99.90;;;;;;5086062;28;20066;-74
2022/08/05 03:46:09;;;;;;;11.00;3.90;;;17.70;99.90;;;;;;5097409;28;20047;-74
2022/08/05 03:48:34;;;;;;;6.88;3.10;;;17.60;99.90;;;;;;5077176;28;20044;-73
2022/08/05 03:51:17;;;;;;;5.93;2.97;;;17.60;99.90;;;;;;5086318;28;20127;-74
2022/08/05 03:54:05;;;;;;;10.32;3.20;;;17.60;99.90;;;;;;5078144;28;20059;-75
2022/08/05 03:56:38;;;;;;;11.40;3.58;;;17.60;99.90;;;;;;5097815;28;20154;-74
2022/08/05 03:59:08;;;;;;;8.88;2.80;;;17.60;99.90;;;;;;5098024;28;20042;-74
2022/08/05 04:01:38;;;;;;;7.60;3.00;;;17.60;99.90;;;;;;5095238;27;20056;-75
2022/08/05 04:04:04;;;;;;;7.78;2.60;;;17.70;99.90;;;;;;5105213;28;20051;-74
2022/08/05 04:06:33;;;;;;;6.50;3.10;;;17.70;99.90;;;;;;5075961;28;20066;-75
2022/08/05 04:08:59;;;;;;;6.93;2.90;;;17.70;99.90;;;;;;5115438;27;20130;-74
2022/08/05 04:12:02;;;;;;;10.68;3.38;;;17.60;99.90;;;;;;5099889;28;20043;-73
2022/08/05 04:14:29;;;;;;;9.68;2.85;;;17.60;99.90;;;;;;5107023;28;20040;-72
2022/08/05 04:16:55;;;;;;;8.30;3.05;;;17.50;99.90;;;;;;5120138;27;20043;-73
2022/08/05 04:19:21;;;;;;;7.90;2.90;;;17.40;99.90;;;;;;5103490;28;20364;-73
2022/08/05 04:21:46;;;;;;;9.73;3.50;;;17.50;99.90;;;;;;5101722;28;20385;-75
2022/08/05 04:24:12;;;;;;;9.38;3.10;;;17.50;99.90;;;;;;5097846;28;20482;-74
2022/08/05 04:26:38;;;;;;;9.52;2.75;;;17.50;99.90;;;;;;5098214;28;20047;-74
2022/08/05 04:29:03;;;;;;;6.35;2.50;;;17.50;99.90;;;;;;5094418;28;20376;-74
2022/08/05 04:31:29;;;;;;;7.47;2.85;;;17.60;99.90;;;;;;5099934;28;20039;-74
2022/08/05 04:33:54;;;;;;;6.97;2.80;;;17.60;99.90;;;;;;5084167;28;20062;-74
2022/08/05 04:36:20;;;;;;;8.82;2.80;;;17.60;99.90;;;;;;5095424;28;20403;-74
2022/08/05 04:38:46;;;;;;;4.82;2.80;;;17.60;99.90;;;;;;5104454;28;20043;-74
2022/08/05 04:41:12;;;;;;;7.63;2.97;;;17.60;99.90;;;;;;5077996;28;20036;-75
2022/08/05 04:43:38;;;;;;;8.65;3.10;;;17.60;99.90;;;;;;5103538;28;20104;-74
2022/08/05 04:46:04;;;;;;;6.72;3.08;;;17.70;99.90;;;;;;5102009;28;20091;-74
2022/08/05 04:48:30;;;;;;;8.75;2.92;;;17.60;99.90;;;;;;5084229;28;20043;-74
2022/08/05 04:50:56;;;;;;;10.18;3.25;;;17.70;99.90;;;;;;5105527;28;20055;-74
2022/08/05 04:53:22;;;;;;;8.82;3.25;;;17.70;99.90;;;;;;5082281;28;20504;-74
2022/08/05 04:55:47;;;;;;;8.27;3.40;;;17.70;99.90;;;;;;5085390;28;20028;-73
2022/08/05 04:58:15;;;;;;;9.75;3.22;;;17.80;99.90;;;;;;5079799;28;20177;-74
2022/08/05 05:00:41;;;;;;;8.52;3.40;;;17.80;99.90;;;;;;5100045;28;20124;-74
2022/08/05 05:03:08;;;;;;;8.70;3.55;;;17.80;99.90;;;;;;5089399;28;20442;-74
2022/08/05 05:05:34;;;;;;;11.90;5.18;;;17.80;99.90;;;;;;5112251;28;20518;-75
2022/08/05 05:08:09;;;;;;;5.63;3.58;;;17.70;99.90;;;;;;5097681;28;20521;-74
2022/08/05 05:10:41;;;;;;;41.63;16.15;;;17.60;99.90;;;;;;5105192;28;20040;-73
2022/08/05 05:13:14;;;;;;;30.85;13.95;;;17.70;99.90;;;;;;5106240;28;20055;-74
2022/08/05 05:15:41;;;;;;;8.98;3.72;;;17.60;99.90;;;;;;5097609;28;20043;-74
2022/08/05 05:18:07;;;;;;;7.32;2.85;;;17.60;99.90;;;;;;5106261;28;20044;-74
2022/08/05 05:20:34;;;;;;;9.38;3.25;;;17.60;99.90;;;;;;5109199;28;20112;-73
2022/08/05 05:23:03;;;;;;;12.48;3.35;;;17.60;99.90;;;;;;5095335;28;20044;-75
2022/08/05 05:25:29;;;;;;;9.38;3.17;;;17.50;99.90;;;;;;5066703;28;20036;-74
2022/08/05 05:27:54;;;;;;;7.57;3.13;;;17.60;99.90;;;;;;5086338;28;20104;-75
2022/08/05 05:30:21;;;;;;;10.48;3.40;;;17.50;99.90;;;;;;5083040;28;20707;-74
2022/08/05 05:32:47;;;;;;;10.75;3.30;;;17.60;99.90;;;;;;5106556;28;20164;-73
2022/08/05 05:35:13;;;;;;;7.75;3.58;;;17.50;99.90;;;;;;5109785;28;20111;-73
2022/08/05 05:37:56;;;;;;;8.68;3.45;;;17.40;99.90;;;;;;5101189;28;20927;-72
2022/08/05 05:40:23;;;;;;;6.80;3.58;;;17.40;99.90;;;;;;5102686;28;20039;-74
2022/08/05 05:42:49;;;;;;;11.00;3.35;;;17.40;99.90;;;;;;5104506;28;20078;-75
2022/08/05 05:45:16;;;;;;;5.38;2.53;;;17.40;99.90;;;;;;5102227;28;20089;-74
2022/08/05 05:47:42;;;;;;;8.50;2.63;;;17.40;99.90;;;;;;5100418;28;20063;-72
2022/08/05 05:50:09;;;;;;;11.85;2.92;;;17.60;99.90;;;;;;5115085;27;20047;-73
2022/08/05 05:52:35;;;;;;;8.43;2.88;;;17.80;99.90;;;;;;5101998;28;20041;-72
2022/08/05 05:55:07;;;;;;;6.38;2.30;;;17.80;99.90;;;;;;5099277;28;20043;-74
2022/08/05 05:57:37;;;;;;;10.85;3.20;;;17.90;99.90;;;;;;5085451;28;20550;-73
2022/08/05 06:00:10;;;;;;;6.10;3.33;;;18.00;99.90;;;;;;5082541;28;20040;-75
2022/08/05 06:02:35;;;;;;;8.60;3.22;;;17.80;99.90;;;;;;5102602;28;20035;-74
2022/08/05 06:05:03;;;;;;;7.22;3.60;;;17.70;99.90;;;;;;5080574;28;20035;-74
2022/08/05 06:07:28;;;;;;;8.32;3.30;;;17.70;99.90;;;;;;5102027;28;20055;-74
2022/08/05 06:09:54;;;;;;;7.25;3.25;;;17.70;99.90;;;;;;5078954;28;20059;-73
2022/08/05 06:12:20;;;;;;;6.45;3.22;;;17.70;99.90;;;;;;5099504;28;20040;-72
2022/08/05 06:14:45;;;;;;;9.07;3.20;;;17.70;99.90;;;;;;5080678;28;20032;-72
2022/08/05 06:17:11;;;;;;;6.32;2.75;;;17.70;99.90;;;;;;5100478;28;20067;-74
2022/08/05 06:19:38;;;;;;;8.30;2.88;;;17.70;99.90;;;;;;5100285;28;20383;-75
2022/08/05 06:22:05;;;;;;;6.05;2.85;;;17.70;99.90;;;;;;5094383;28;20069;-74
2022/08/05 06:24:31;;;;;;;5.95;2.85;;;17.80;99.90;;;;;;5101808;28;20086;-74
2022/08/05 06:26:57;;;;;;;4.05;2.00;;;17.80;99.90;;;;;;5098037;28;20188;-75
2022/08/05 06:29:23;;;;;;;4.00;1.77;;;17.80;99.90;;;;;;5085582;28;20143;-75
2022/08/05 06:31:49;;;;;;;6.40;2.00;;;18.00;99.90;;;;;;5082324;28;20031;-74
2022/08/05 06:34:14;;;;;;;5.60;2.20;;;18.00;99.90;;;;;;5102467;28;20043;-74
2022/08/05 06:36:40;;;;;;;8.25;2.20;;;18.00;99.90;;;;;;5103202;28;20065;-73
2022/08/05 06:39:05;;;;;;;5.38;1.80;;;18.10;99.90;;;;;;5104005;28;20077;-73
2022/08/05 06:41:31;;;;;;;7.40;1.60;;;18.10;99.90;;;;;;5095183;28;20360;-73
2022/08/05 06:43:57;;;;;;;5.43;1.60;;;18.20;99.90;;;;;;5098303;28;20459;-73
2022/08/05 06:46:23;;;;;;;3.78;1.48;;;18.30;99.90;;;;;;5102894;28;20039;-73
2022/08/05 06:48:48;;;;;;;6.90;1.50;;;18.40;99.90;;;;;;5081914;28;20055;-73
2022/08/05 06:51:14;;;;;;;4.30;1.30;;;18.40;99.90;;;;;;5079584;28;20440;-73
2022/08/05 06:53:40;;;;;;;2.75;0.90;;;18.40;99.90;;;;;;5098436;28;20047;-73
2022/08/05 06:56:06;;;;;;;4.53;1.40;;;18.50;99.90;;;;;;5095654;28;20066;-74
2022/08/05 06:58:35;;;;;;;6.15;1.40;;;18.50;99.90;;;;;;5100302;28;20052;-75
2022/08/05 07:01:02;;;;;;;5.85;1.40;;;18.60;99.90;;;;;;5094772;28;20083;-72
2022/08/05 07:03:29;;;;;;;2.60;1.00;;;18.60;99.90;;;;;;5096068;28;20043;-72
2022/08/05 07:05:55;;;;;;;2.83;0.90;;;18.70;99.90;;;;;;5093479;28;20044;-73
2022/08/05 07:08:23;;;;;;;4.90;1.23;;;18.70;99.90;;;;;;5095201;28;20135;-73
2022/08/05 07:10:49;;;;;;;5.47;1.30;;;18.80;99.90;;;;;;5080491;28;20043;-74
2022/08/05 07:18:43;;;;;;;4.03;1.35;;;19.20;99.90;;;;;;5097948;28;20534;-74
2022/08/05 07:21:09;;;;;;;3.35;1.75;;;19.30;99.90;;;;;;5095726;28;20146;-73
2022/08/05 07:23:36;;;;;;;7.97;1.17;;;19.50;99.90;;;;;;5079176;28;20189;-74
2022/08/05 07:26:03;;;;;;;1.70;0.95;;;19.60;99.90;;;;;;5095320;28;20048;-74
2022/08/05 07:28:29;;;;;;;2.17;1.10;;;19.70;99.90;;;;;;5076858;28;20387;-74
2022/08/05 07:30:55;;;;;;;6.05;1.20;;;19.70;99.90;;;;;;5095767;28;21230;-73
2022/08/05 07:33:21;;;;;;;1.63;1.00;;;19.70;99.90;;;;;;5099360;28;20050;-75
2022/08/05 07:35:47;;;;;;;7.40;1.40;;;19.80;99.90;;;;;;5029142;28;20032;-73
2022/08/05 07:38:17;;;;;;;3.58;1.13;;;19.90;99.90;;;;;;5072734;28;20051;-72
2022/08/05 07:40:43;;;;;;;4.53;0.80;;;20.00;99.90;;;;;;5074842;28;20056;-73
2022/08/05 07:43:10;;;;;;;6.35;1.00;;;20.00;99.90;;;;;;5083396;28;20055;-73
2022/08/05 07:45:35;;;;;;;10.95;1.10;;;20.10;99.90;;;;;;5080034;28;20059;-75
2022/08/05 07:48:01;;;;;;;4.07;0.95;;;20.30;99.90;;;;;;5073894;28;20060;-73
2022/08/05 07:50:27;;;;;;;2.38;0.85;;;20.40;99.90;;;;;;5056607;28;20066;-73
2022/08/05 07:52:53;;;;;;;10.57;1.08;;;20.30;99.90;;;;;;5076291;28;20051;-73
2022/08/05 07:55:18;;;;;;;11.40;1.13;;;20.40;99.90;;;;;;5065697;28;20353;-72
2022/08/05 07:57:44;;;;;;;20.10;2.22;;;20.30;99.90;;;;;;5076366;28;20051;-72
2022/08/05 08:00:13;;;;;;;5.80;0.82;;;20.40;99.90;;;;;;5062523;28;20055;-74
2022/08/05 08:02:39;;;;;;;1.40;0.70;;;20.30;99.90;;;;;;5078917;28;20419;-72
2022/08/05 08:05:05;;;;;;;4.63;0.90;;;20.50;99.90;;;;;;5078531;28;20121;-72
2022/08/05 08:07:33;;;;;;;3.15;0.80;;;20.60;99.90;;;;;;5076638;28;20067;-74
2022/08/05 08:09:59;;;;;;;2.95;0.95;;;20.80;99.90;;;;;;5078151;28;20450;-72
2022/08/05 08:12:25;;;;;;;4.18;0.80;;;20.80;99.90;;;;;;5075452;28;20138;-73
2022/08/05 08:14:51;;;;;;;3.10;0.70;;;20.80;99.90;;;;;;5056567;28;20055;-74
2022/08/05 08:17:17;;;;;;;2.33;0.90;;;20.80;99.90;;;;;;5075168;28;20079;-75
2022/08/05 08:19:44;;;;;;;2.97;0.90;;;20.90;99.90;;;;;;5060851;28;20132;-75
2022/08/05 08:22:10;;;;;;;2.03;0.73;;;21.10;99.90;;;;;;5074892;28;20475;-75
2022/08/05 08:24:37;;;;;;;3.70;0.80;;;21.30;99.90;;;;;;5060573;28;20085;-75
2022/08/05 08:27:04;;;;;;;7.32;0.82;;;21.30;99.90;;;;;;5082834;28;20048;-74
2022/08/05 08:29:29;;;;;;;5.65;1.10;;;21.20;99.90;;;;;;5071817;28;20082;-73
2022/08/05 08:31:55;;;;;;;4.35;1.00;;;21.00;99.90;;;;;;5086965;28;20480;-72
2022/08/05 08:34:25;;;;;;;7.15;1.00;;;20.80;99.90;;;;;;5079742;28;20376;-73
2022/08/05 08:36:51;;;;;;;5.30;0.82;;;20.80;99.90;;;;;;5064574;28;20051;-74
2022/08/05 08:39:17;;;;;;;4.60;0.98;;;20.70;99.90;;;;;;5064777;28;20048;-73
2022/08/05 08:41:55;;;;;;;4.88;0.93;;;20.80;99.90;;;;;;5082876;28;20081;-73
2022/08/05 08:44:23;;;;;;;8.57;1.05;;;21.00;99.90;;;;;;5097888;28;20052;-73
2022/08/05 08:46:49;;;;;;;3.03;0.90;;;21.20;99.90;;;;;;5066079;28;20055;-75
2022/08/05 08:49:18;;;;;;;7.65;1.08;;;21.30;99.90;;;;;;5085173;28;20048;-74
2022/08/05 08:51:47;;;;;;;3.83;0.80;;;21.50;99.90;;;;;;5064195;28;20125;-72
2022/08/05 08:54:13;;;;;;;3.35;0.70;;;21.40;99.90;;;;;;5083464;28;20051;-75
2022/08/05 08:56:39;;;;;;;6.90;1.00;;;21.10;99.90;;;;;;5086599;28;20433;-73
2022/08/05 08:59:05;;;;;;;9.60;0.68;;;20.80;99.90;;;;;;5081186;28;20216;-72
2022/08/05 09:01:31;;;;;;;4.30;0.60;;;20.80;99.90;;;;;;5076705;28;20529;-73
2022/08/05 09:03:59;;;;;;;3.47;0.63;;;20.70;99.90;;;;;;5068566;28;20135;-75
2022/08/05 09:06:27;;;;;;;3.55;0.80;;;20.90;99.90;;;;;;5064017;28;20067;-74
2022/08/05 09:08:54;;;;;;;3.53;1.15;;;20.90;99.90;;;;;;5087495;28;20060;-71
2022/08/05 09:11:20;;;;;;;4.47;0.85;;;21.00;99.90;;;;;;5067624;28;20048;-73
2022/08/05 09:13:46;;;;;;;2.55;0.90;;;20.90;99.90;;;;;;5082875;28;20048;-73
2022/08/05 09:16:12;;;;;;;4.30;0.80;;;20.80;99.90;;;;;;5063253;28;20181;-72
2022/08/05 09:18:38;;;;;;;7.65;0.80;;;20.80;99.90;;;;;;5087743;28;20102;-73
2022/08/05 09:21:04;;;;;;;2.47;0.60;;;20.90;99.90;;;;;;5071718;28;20162;-72
2022/08/05 09:23:30;;;;;;;2.33;0.60;;;20.90;99.90;;;;;;5073051;28;20062;-72
2022/08/05 09:26:11;;;;;;;4.53;0.88;;;21.00;99.90;;;;;;5072914;28;20048;-73
2022/08/05 09:28:39;;;;;;;5.43;0.70;;;21.10;99.90;;;;;;5076629;28;20036;-72
2022/08/05 09:31:06;;;;;;;1.52;0.60;;;21.30;99.90;;;;;;5076063;28;20048;-73
2022/08/05 09:33:57;;;;;;;2.60;0.68;;;21.40;99.90;;;;;;5066633;28;20123;-73
2022/08/05 09:36:23;;;;;;;1.50;0.70;;;21.30;99.90;;;;;;5078606;28;20113;-73
2022/08/05 09:39:01;;;;;;;9.73;0.85;;;21.20;99.90;;;;;;5068952;28;20040;-73
2022/08/05 09:41:27;;;;;;;5.47;0.77;;;21.20;99.90;;;;;;5066883;28;20178;-73
2022/08/05 09:43:53;;;;;;;4.95;0.70;;;21.20;99.90;;;;;;5085321;28;20427;-73
2022/08/05 09:46:37;;;;;;;2.25;0.52;;;21.20;99.90;;;;;;5059139;28;20067;-73
2022/08/05 09:49:06;;;;;;;1.83;0.70;;;21.10;99.90;;;;;;5076912;28;20075;-74
2022/08/05 09:51:37;;;;;;;2.15;0.60;;;21.10;99.90;;;;;;5078215;28;20044;-75
2022/08/05 09:54:07;;;;;;;6.18;0.88;;;21.10;99.90;;;;;;5077302;28;20044;-74
2022/08/05 09:56:36;;;;;;;2.75;0.68;;;21.20;99.90;;;;;;5073792;28;20040;-74
2022/08/05 09:59:03;;;;;;;1.65;0.68;;;20.90;99.90;;;;;;5062389;28;20048;-74
2022/08/05 10:01:32;;;;;;;11.70;0.90;;;21.00;99.90;;;;;;5056148;28;20048;-75
2022/08/05 10:04:05;;;;;;;4.30;0.50;;;21.00;99.90;;;;;;5072088;28;20134;-74
2022/08/05 10:06:31;;;;;;;7.40;0.75;;;20.90;99.90;;;;;;5076371;28;20044;-74
2022/08/05 10:09:20;;;;;;;1.73;0.50;;;21.10;99.90;;;;;;5071892;28;20044;-74
2022/08/05 10:11:47;;;;;;;3.60;0.60;;;21.20;99.90;;;;;;5078157;28;20059;-74
2022/08/05 10:14:27;;;;;;;2.08;0.50;;;21.30;99.90;;;;;;5077566;28;20147;-74
2022/08/05 10:16:57;;;;;;;3.90;0.52;;;21.40;99.90;;;;;;5075444;28;20048;-77
2022/08/05 10:19:25;;;;;;;1.85;0.70;;;21.40;99.90;;;;;;5061080;28;20138;-73
2022/08/05 10:21:50;;;;;;;1.90;0.40;;;21.40;99.90;;;;;;5061145;28;20121;-75
2022/08/05 10:24:18;;;;;;;1.38;0.43;;;21.40;99.90;;;;;;5074345;28;20503;-71
2022/08/05 10:26:45;;;;;;;1.20;0.35;;;21.40;97.90;;;;;;5086581;28;20039;-72
2022/08/05 10:29:11;;;;;;;2.13;0.50;;;21.60;96.30;;;;;;5078349;28;20068;-73
2022/08/05 10:31:40;;;;;;;1.08;0.50;;;21.70;95.80;;;;;;5081461;28;20125;-74
2022/08/05 10:34:09;;;;;;;3.85;0.50;;;21.60;95.80;;;;;;5080291;28;20044;-74
2022/08/05 10:36:40;;;;;;;6.20;0.90;;;21.70;97.10;;;;;;5080295;28;20050;-73
2022/08/05 10:39:15;;;;;;;2.17;0.50;;;22.00;97.90;;;;;;5080994;28;20343;-74
2022/08/05 10:42:15;;;;;;;7.00;0.50;;;22.10;96.70;;;;;;5080676;28;20048;-75
2022/08/05 10:48:34;;;;;;;4.75;0.45;;;22.50;96.20;;;;;;5075395;28;20051;-75
2022/08/05 10:51:18;;;;;;;1.65;0.30;;;22.50;95.90;;;;;;5058934;28;20090;-72
2022/08/05 10:53:55;;;;;;;3.00;0.47;;;22.70;96.00;;;;;;5067478;28;20179;-74
2022/08/05 10:56:25;;;;;;;4.18;0.65;;;22.80;95.10;;;;;;5084748;28;20386;-71
2022/08/05 10:58:56;;;;;;;0.93;0.30;;;22.70;95.30;;;;;;5089840;28;20099;-71
2022/08/05 11:01:40;;;;;;;2.35;0.40;;;22.80;95.80;;;;;;5080710;28;20146;-75
2022/08/05 11:04:11;;;;;;;2.95;0.28;;;23.00;95.90;;;;;;5073845;28;20135;-73
2022/08/05 11:07:05;;;;;;;10.95;0.43;;;23.10;95.20;;;;;;5078845;28;20055;-75
2022/08/05 11:09:43;;;;;;;5.83;0.60;;;23.10;95.40;;;;;;5076605;28;20080;-75
2022/08/05 11:12:42;;;;;;;2.53;0.70;;;23.20;95.80;;;;;;5055399;28;20123;-72
2022/08/05 11:15:08;;;;;;;1.90;0.40;;;23.10;96.00;;;;;;5076152;28;20096;-72
2022/08/05 11:17:38;;;;;;;1.83;0.50;;;23.00;96.70;;;;;;5079635;28;20078;-75
2022/08/05 11:20:06;;;;;;;2.00;0.40;;;23.00;95.60;;;;;;5094782;28;20079;-73
2022/08/05 11:22:47;;;;;;;4.55;0.40;;;22.90;94.30;;;;;;5060924;28;20055;-72
2022/08/05 11:25:28;;;;;;;6.43;0.80;;;22.90;95.00;;;;;;5058468;28;20052;-72
2022/08/05 11:27:55;;;;;;;3.70;0.52;;;23.10;95.60;;;;;;5072261;28;20124;-70
2022/08/05 11:30:21;;;;;;;3.10;0.50;;;23.00;95.40;;;;;;5072461;28;20159;-72
2022/08/05 11:32:47;;;;;;;15.00;1.02;;;22.80;95.40;;;;;;5055887;28;20135;-70
2022/08/05 11:35:50;;;;;;;5.10;0.50;;;23.20;96.20;;;;;;5074360;28;20091;-70
2022/08/05 11:38:16;;;;;;;7.95;1.25;;;23.10;97.30;;;;;;5075263;28;20067;-73
2022/08/05 11:41:16;;;;;;;7.72;0.65;;;22.80;98.20;;;;;;5075780;28;20068;-72
2022/08/05 11:43:51;;;;;;;10.10;0.80;;;22.20;99.00;;;;;;5075582;28;20048;-72
2022/08/05 11:46:17;;;;;;;1.58;0.60;;;22.40;98.60;;;;;;5070275;28;20182;-72
2022/08/05 11:48:43;;;;;;;5.72;0.80;;;22.10;98.30;;;;;;5077671;28;20445;-73
2022/08/05 11:51:09;;;;;;;2.15;0.50;;;22.30;97.80;;;;;;5056049;28;20115;-72
2022/08/05 11:53:35;;;;;;;2.67;0.70;;;22.90;97.70;;;;;;5074111;28;20124;-71
2022/08/05 11:56:04;;;;;;;6.50;0.88;;;23.20;97.00;;;;;;5080253;28;20131;-72
2022/08/05 11:58:40;;;;;;;6.45;0.40;;;23.80;96.10;;;;;;5073117;28;20055;-71
2022/08/05 12:01:08;;;;;;;5.57;0.70;;;24.00;94.20;;;;;;5095043;28;20067;-72
2022/08/05 12:03:53;;;;;;;4.32;0.70;;;23.40;95.10;;;;;;5080285;28;20049;-73
2022/08/05 12:06:24;;;;;;;2.67;0.50;;;23.70;96.10;;;;;;5079640;28;20055;-74
2022/08/05 12:08:52;;;;;;;6.57;0.55;;;23.80;96.10;;;;;;5074992;28;20106;-71
2022/08/05 12:11:19;;;;;;;6.28;0.70;;;23.80;95.60;;;;;;5062686;28;20071;-74
2022/08/05 12:18:05;;;;;;;5.68;0.70;;;22.80;98.40;;;;;;5076532;28;20910;-71
2022/08/05 12:20:37;;;;;;;5.18;0.68;;;22.10;99.90;;;;;;5086881;28;20071;-73
2022/08/05 12:23:10;;;;;;;1.65;0.63;;;21.60;99.90;;;;;;5065691;28;20058;-72
2022/08/05 12:26:08;;;;;;;1.23;0.50;;;21.50;99.90;;;;;;5069753;28;20418;-71
2022/08/05 12:28:35;;;;;;;8.13;0.98;;;21.60;99.70;;;;;;4983163;28;20053;-71
2022/08/05 12:31:04;;;;;;;2.80;0.85;;;21.90;99.20;;;;;;4982873;28;20054;-69
2022/08/05 12:33:30;;;;;;;3.30;0.60;;;22.10;99.30;;;;;;4980862;28;20042;-73
2022/08/05 12:35:56;;;;;;;3.75;0.50;;;21.70;99.70;;;;;;4995673;28;20045;-71
2022/08/05 12:38:22;;;;;;;5.18;0.80;;;21.20;99.90;;;;;;4982824;28;20054;-71
2022/08/05 12:40:49;;;;;;;3.28;0.70;;;21.20;99.90;;;;;;4981547;28;20042;-70
2022/08/05 12:43:15;;;;;;;4.45;0.60;;;21.60;99.90;;;;;;4966437;28;20149;-69
2022/08/05 12:45:55;;;;;;;3.08;0.35;;;21.70;99.90;;;;;;4996525;28;20188;-74
2022/08/05 12:48:22;;;;;;;3.67;0.47;;;21.70;98.30;;;;;;4979779;28;20484;-73
2022/08/05 12:51:10;;;;;;;4.07;0.50;;;21.90;98.30;;;;;;4979265;28;20050;-72
2022/08/05 12:53:45;;;;;;;4.60;0.40;;;22.50;97.60;;;;;;4980133;28;20041;-70
2022/08/05 12:56:21;;;;;;;6.07;0.90;;;22.70;95.80;;;;;;4995163;28;20034;-68
2022/08/05 12:59:13;;;;;;;8.07;0.80;;;22.90;96.30;;;;;;4964011;28;20050;-73
2022/08/05 13:02:12;;;;;;;3.35;0.93;;;22.90;96.40;;;;;;4982165;28;20132;-72
2022/08/05 13:04:42;;;;;;;6.13;0.50;;;22.70;96.40;;;;;;4963263;28;22225;-72
2022/08/05 13:07:15;;;;;;;9.75;1.15;;;22.40;97.00;;;;;;4981338;28;20116;-74
2022/08/05 13:09:46;;;;;;;4.00;0.55;;;22.40;97.30;;;;;;4985565;28;20056;-73
2022/08/05 13:12:13;;;;;;;5.40;0.60;;;22.10;96.50;;;;;;4986191;28;20053;-73
2022/08/05 13:14:42;;;;;;;3.08;0.40;;;22.30;96.20;;;;;;4986566;28;20094;-75